Time;durP1;ratioP1;P1;durP2;ratioP2;P2;SDS_P1;SDS_P2;PMS_P1;PMS_P2;Temp;Humidity;BMP_temperature;BMP_pressure;BME280_temperature;BME280_humidity;BME280_pressure;Samples;Min_cycle;Max_cycle;Signal;HPM_P1;HPM_P2
2022/03/19 00:00:59;;;;;;;58.60;29.95;;;;;;;5.44;84.63;100970.28;4988871;28;20030;-72
2022/03/19 00:03:25;;;;;;;61.97;28.98;;;;;;;5.47;84.41;100958.47;4987222;28;20030;-72
2022/03/19 00:05:51;;;;;;;59.08;29.15;;;;;;;5.47;84.20;100966.53;4982579;28;20522;-72
2022/03/19 00:08:16;;;;;;;60.78;29.48;;;;;;;5.26;84.36;100926.91;4987976;28;20034;-72
2022/03/19 00:10:43;;;;;;;59.40;30.35;;;;;;;5.41;84.31;100957.13;4985026;28;20791;-72
2022/03/19 00:13:10;;;;;;;59.28;29.92;;;;;;;5.39;84.72;100969.78;4986530;28;20044;-71
2022/03/19 00:15:35;;;;;;;62.42;29.08;;;;;;;5.38;84.59;100968.09;4988526;28;20058;-72
2022/03/19 00:18:01;;;;;;;56.80;29.10;;;;;;;5.33;84.73;100974.78;4988742;28;20058;-72
2022/03/19 00:20:26;;;;;;;62.97;29.38;;;;;;;5.27;84.34;100950.13;4989609;28;20789;-71
2022/03/19 00:22:51;;;;;;;62.15;30.27;;;;;;;5.14;84.03;100930.56;4990728;28;20092;-71
2022/03/19 00:25:17;;;;;;;57.38;28.85;;;;;;;5.10;83.84;100917.47;4985947;28;20034;-71
2022/03/19 00:27:42;;;;;;;63.00;28.42;;;;;;;5.34;83.77;100950.50;4985762;28;20057;-71
2022/03/19 00:30:09;;;;;;;58.83;29.45;;;;;;;5.34;83.37;100939.75;4987086;28;20112;-71
2022/03/19 00:32:35;;;;;;;57.65;28.77;;;;;;;5.18;83.43;100928.50;4985492;28;20022;-71
2022/03/19 00:35:01;;;;;;;54.17;29.67;;;;;;;5.33;83.57;100948.78;4986156;28;20049;-71
2022/03/19 00:37:26;;;;;;;55.13;29.60;;;;;;;5.32;83.27;100952.47;4987335;28;20040;-71
2022/03/19 00:39:51;;;;;;;58.53;29.55;;;;;;;5.36;82.76;100951.25;4989277;28;20053;-71
2022/03/19 00:42:17;;;;;;;57.17;28.10;;;;;;;5.41;82.13;100935.63;4988693;28;20628;-71
2022/03/19 00:44:44;;;;;;;56.55;28.23;;;;;;;5.38;82.16;100943.94;4982454;28;20388;-72
2022/03/19 00:47:10;;;;;;;53.20;27.10;;;;;;;5.28;82.34;100930.34;4989044;28;20109;-72
2022/03/19 00:49:35;;;;;;;62.17;31.40;;;;;;;5.33;82.73;100942.56;4985736;28;20148;-70
2022/03/19 00:52:00;;;;;;;55.63;28.40;;;;;;;5.26;82.93;100937.66;4983588;28;20018;-71
2022/03/19 00:54:26;;;;;;;61.08;29.45;;;;;;;5.12;83.02;100920.91;4983832;28;20072;-71
2022/03/19 00:56:51;;;;;;;56.08;28.27;;;;;;;5.31;82.64;100949.88;4988853;28;20033;-70
2022/03/19 00:59:16;;;;;;;56.22;28.35;;;;;;;5.10;82.52;100914.81;4984957;28;20026;-71
2022/03/19 01:01:42;;;;;;;61.90;29.38;;;;;;;5.33;82.67;100950.63;4987109;28;20030;-71
2022/03/19 01:04:07;;;;;;;57.47;28.38;;;;;;;5.34;82.03;100934.38;4986989;28;20034;-72
2022/03/19 01:06:33;;;;;;;59.88;28.15;;;;;;;5.30;82.68;100942.81;4986038;28;20037;-71
2022/03/19 01:08:58;;;;;;;56.90;29.08;;;;;;;5.21;82.97;100945.22;4982730;28;20539;-71
2022/03/19 01:11:23;;;;;;;55.58;28.13;;;;;;;5.25;82.41;100937.78;4987554;28;20387;-71
2022/03/19 01:13:52;;;;;;;58.50;27.42;;;;;;;5.20;82.47;100942.66;4988790;28;20026;-71
2022/03/19 01:16:19;;;;;;;59.80;28.20;;;;;;;4.99;83.40;100913.78;4986501;28;20055;-71
2022/03/19 01:18:45;;;;;;;60.17;29.52;;;;;;;5.03;82.34;100909.03;4989185;28;20049;-71
2022/03/19 01:21:11;;;;;;;60.42;28.75;;;;;;;5.25;81.91;100935.97;4984479;28;20034;-70
2022/03/19 01:23:36;;;;;;;57.25;27.80;;;;;;;5.22;81.96;100932.66;4986392;28;20401;-70
2022/03/19 01:26:01;;;;;;;54.97;27.42;;;;;;;5.18;82.19;100936.53;4982224;28;20084;-70
2022/03/19 01:28:27;;;;;;;61.45;27.65;;;;;;;5.08;81.87;100908.69;4986938;28;20050;-71
2022/03/19 01:30:52;;;;;;;63.33;30.02;;;;;;;4.93;82.30;100892.78;4986402;28;20073;-70
2022/03/19 01:33:17;;;;;;;56.78;29.80;;;;;;;5.22;82.14;100930.81;4988208;28;20030;-70
2022/03/19 01:35:43;;;;;;;61.10;28.27;;;;;;;5.11;81.49;100911.13;4985431;28;20033;-70
2022/03/19 01:38:08;;;;;;;59.00;28.85;;;;;;;5.10;81.19;100901.38;4985935;28;20487;-70
2022/03/19 01:40:33;;;;;;;60.50;28.92;;;;;;;5.19;82.06;100927.53;4987809;28;20030;-71
2022/03/19 01:43:00;;;;;;;53.92;27.40;;;;;;;5.14;81.49;100927.03;4981796;28;20023;-70
2022/03/19 01:45:26;;;;;;;54.45;27.98;;;;;;;5.05;81.76;100920.50;4989003;28;20564;-70
2022/03/19 01:47:53;;;;;;;53.50;27.15;;;;;;;5.08;81.69;100936.38;4982880;28;20112;-70
2022/03/19 01:50:21;;;;;;;57.20;27.70;;;;;;;5.07;82.15;100937.34;4982978;28;20022;-70
2022/03/19 01:52:47;;;;;;;55.63;28.15;;;;;;;5.03;81.69;100936.72;4989316;28;20026;-70
2022/03/19 01:55:15;;;;;;;54.65;28.38;;;;;;;4.88;82.43;100903.00;4987194;28;20214;-70
2022/03/19 01:57:44;;;;;;;58.17;28.20;;;;;;;5.00;81.66;100931.59;4987784;28;20038;-70
2022/03/19 02:00:13;;;;;;;62.90;30.00;;;;;;;4.85;82.44;100908.63;4990845;28;20738;-70
2022/03/19 02:02:39;;;;;;;55.53;28.13;;;;;;;4.89;82.57;100928.84;4988674;28;20523;-70
2022/03/19 02:05:05;;;;;;;55.42;27.80;;;;;;;4.77;82.22;100905.66;4985399;28;20543;-73
2022/03/19 02:07:31;;;;;;;56.70;28.15;;;;;;;4.92;82.02;100917.03;4989058;28;20085;-70
2022/03/19 02:09:58;;;;;;;55.65;27.50;;;;;;;4.74;81.74;100890.66;4983007;28;20050;-71
2022/03/19 02:12:24;;;;;;;54.17;27.48;;;;;;;4.95;81.62;100916.81;4989401;28;20022;-71
2022/03/19 02:14:49;;;;;;;55.65;27.60;;;;;;;4.89;81.82;100931.53;4987369;28;20034;-70
2022/03/19 02:17:15;;;;;;;54.88;27.75;;;;;;;4.86;81.95;100928.22;4987259;28;20041;-71
2022/03/19 02:19:51;;;;;;;54.17;26.80;;;;;;;4.81;81.98;100932.09;4987495;28;20116;-71
2022/03/19 02:22:18;;;;;;;58.25;26.90;;;;;;;4.82;81.75;100927.59;4989643;28;20467;-70
2022/03/19 02:27:42;;;;;;;55.88;28.05;;;;;;;4.68;81.61;100895.59;4989305;28;20061;-71
2022/03/19 02:30:10;;;;;;;56.55;28.85;;;;;;;4.88;82.18;100929.84;4986717;28;20093;-72
2022/03/19 02:32:38;;;;;;;57.60;28.27;;;;;;;4.82;81.96;100933.84;4989859;28;20456;-70
2022/03/19 02:35:04;;;;;;;56.60;27.83;;;;;;;4.81;82.13;100926.75;4984158;28;20026;-70
2022/03/19 02:37:41;;;;;;;58.60;29.30;;;;;;;4.81;81.92;100921.38;4988585;28;20030;-70
2022/03/19 02:40:11;;;;;;;54.28;26.83;;;;;;;4.82;81.80;100922.22;4987563;28;20026;-71
2022/03/19 02:42:37;;;;;;;54.50;27.15;;;;;;;4.79;81.52;100917.09;4988591;28;20033;-71
2022/03/19 02:45:05;;;;;;;64.55;29.25;;;;;;;4.57;82.60;100891.03;4991313;28;20177;-70
2022/03/19 02:47:30;;;;;;;55.00;27.50;;;;;;;4.73;82.16;100913.03;4992231;28;20019;-71
2022/03/19 02:49:55;;;;;;;52.83;29.17;;;;;;;4.70;82.93;100905.22;4990155;28;20033;-70
2022/03/19 02:52:21;;;;;;;60.30;30.08;;;;;;;4.67;nan;100900.09;4994393;28;20022;-71
2022/03/19 02:54:46;;;;;;;66.75;27.90;;;;;;;4.71;82.78;100908.75;4986574;28;20026;-70
2022/03/19 02:57:11;;;;;;;57.80;27.42;;;;;;;4.68;82.58;100923.25;4993352;28;20105;-71
2022/03/19 02:59:37;;;;;;;62.35;28.92;;;;;;;4.47;82.65;100877.44;4988122;28;20396;-70
2022/03/19 03:02:05;;;;;;;53.45;27.42;;;;;;;4.62;83.08;100910.31;4989666;28;20110;-72
2022/03/19 03:04:31;;;;;;;63.50;28.88;;;;;;;4.59;83.15;100907.88;4987086;28;20054;-73
2022/03/19 03:06:59;;;;;;;59.25;29.95;;;;;;;4.50;83.54;100912.06;4988441;28;20026;-71
2022/03/19 03:09:27;;;;;;;60.20;28.80;;;;;;;4.38;83.16;100875.47;4987434;28;20034;-71
2022/03/19 03:11:53;;;;;;;46.60;22.33;;;;;;;4.53;83.48;100909.19;4990971;28;20044;-72
2022/03/19 03:14:20;;;;;;;58.17;28.33;;;;;;;4.34;83.83;100882.84;4989335;28;20018;-71
2022/03/19 03:16:46;;;;;;;55.40;26.95;;;;;;;4.47;83.53;100909.59;4986560;28;20088;-72
2022/03/19 03:19:12;;;;;;;56.85;28.08;;;;;;;4.47;83.88;100896.19;4991241;28;20034;-71
2022/03/19 03:21:40;;;;;;;58.97;27.77;;;;;;;4.35;83.93;100903.34;4988789;28;20100;-72
2022/03/19 03:24:08;;;;;;;59.08;27.83;;;;;;;4.36;84.64;100904.19;4983133;28;20037;-72
2022/03/19 03:26:33;;;;;;;56.83;28.13;;;;;;;4.39;84.14;100907.47;4987014;28;20030;-72
2022/03/19 03:28:58;;;;;;;57.97;27.60;;;;;;;4.39;84.07;100894.09;4989660;28;20376;-72
2022/03/19 03:31:25;;;;;;;59.40;29.67;;;;;;;4.29;83.22;100873.44;4984187;28;20030;-71
2022/03/19 03:33:51;;;;;;;63.10;28.02;;;;;;;4.37;83.66;100885.28;4985911;28;20030;-72
2022/03/19 03:36:16;;;;;;;55.55;27.30;;;;;;;4.42;83.71;100889.47;5001622;28;20029;-72
2022/03/19 03:38:41;;;;;;;58.83;27.85;;;;;;;4.36;83.75;100893.47;4983663;28;20109;-72
2022/03/19 03:41:07;;;;;;;59.90;27.83;;;;;;;4.20;82.78;100858.03;4990709;28;20383;-71
2022/03/19 03:43:32;;;;;;;61.63;27.67;;;;;;;4.33;83.09;100889.19;4989242;28;20088;-71
2022/03/19 03:45:58;;;;;;;54.63;27.25;;;;;;;4.29;83.45;100889.50;4987273;28;20030;-71
2022/03/19 03:48:24;;;;;;;61.35;27.42;;;;;;;4.26;82.93;100897.78;4988842;28;20108;-72
2022/03/19 03:50:53;;;;;;;56.83;27.77;;;;;;;4.28;83.25;100901.22;5003045;28;20124;-71
2022/03/19 03:53:19;;;;;;;53.28;26.88;;;;;;;4.18;83.16;100864.34;4985389;28;20109;-72
2022/03/19 03:55:44;;;;;;;54.63;27.60;;;;;;;4.30;83.31;100886.72;4985101;28;20486;-71
2022/03/19 03:58:11;;;;;;;58.88;28.50;;;;;;;4.21;83.30;100891.91;4987051;28;20136;-72
2022/03/19 04:00:37;;;;;;;56.65;28.10;;;;;;;4.23;83.22;100887.28;4987591;28;20058;-72
2022/03/19 04:03:03;;;;;;;53.47;27.23;;;;;;;4.18;83.59;100893.81;4989828;28;20046;-72
2022/03/19 04:05:29;;;;;;;55.35;27.85;;;;;;;3.90;83.75;100854.78;4986612;28;20444;-72
2022/03/19 04:07:54;;;;;;;54.60;26.10;;;;;;;4.18;83.03;100888.47;4984891;28;20060;-71
2022/03/19 04:10:20;;;;;;;60.10;28.77;;;;;;;4.15;83.70;100882.47;4989072;28;20050;-71
2022/03/19 04:12:45;;;;;;;62.28;30.25;;;;;;;3.88;83.83;100839.81;4985883;28;20026;-71
2022/03/19 04:15:11;;;;;;;63.22;28.45;;;;;;;4.10;84.25;100872.09;4983477;28;20118;-71
2022/03/19 04:17:37;;;;;;;56.53;27.02;;;;;;;3.83;83.90;100850.84;4980284;28;20145;-72
2022/03/19 04:20:05;;;;;;;56.33;27.40;;;;;;;4.04;84.37;100879.72;4986601;28;20110;-71
2022/03/19 04:22:35;;;;;;;44.88;20.80;;;;;;;4.08;84.33;100878.53;4987256;28;20105;-71
2022/03/19 04:25:01;;;;;;;59.50;26.52;;;;;;;3.99;84.71;100865.81;4983403;28;20068;-71
2022/03/19 04:27:26;;;;;;;53.88;27.15;;;;;;;3.99;84.05;100874.69;4987276;28;20440;-71
2022/03/19 04:29:51;;;;;;;59.50;27.17;;;;;;;3.93;85.13;100873.31;4989109;28;20113;-71
2022/03/19 04:32:17;;;;;;;58.75;28.45;;;;;;;3.94;85.05;100866.13;4988793;28;20026;-72
2022/03/19 04:34:42;;;;;;;55.95;26.65;;;;;;;3.81;84.71;100843.88;4987670;28;20044;-72
2022/03/19 04:37:08;;;;;;;56.83;28.13;;;;;;;3.92;85.49;100870.75;4985618;28;20041;-72
2022/03/19 04:39:33;;;;;;;58.55;28.35;;;;;;;3.90;84.99;100869.97;4985544;28;20042;-72
2022/03/19 04:41:59;;;;;;;59.45;26.65;;;;;;;3.86;84.96;100863.16;4983513;28;20041;-71
2022/03/19 04:44:24;;;;;;;57.10;27.30;;;;;;;3.71;83.43;100825.78;4986823;28;20044;-71
2022/03/19 04:46:49;;;;;;;58.50;27.90;;;;;;;4.02;83.62;100850.38;4990300;28;20124;-72
2022/03/19 04:49:15;;;;;;;57.72;28.02;;;;;;;3.80;83.38;100823.41;4985693;28;20034;-71
2022/03/19 04:51:41;;;;;;;57.55;28.58;;;;;;;4.01;83.60;100863.84;4983386;28;20026;-71
2022/03/19 04:54:06;;;;;;;59.97;28.13;;;;;;;3.81;83.86;100844.72;4984196;28;20031;-72
2022/03/19 04:56:32;;;;;;;62.05;27.23;;;;;;;3.71;83.57;100823.09;4986068;28;20076;-71
2022/03/19 04:58:59;;;;;;;58.05;26.90;;;;;;;3.86;83.96;100865.84;4985663;28;20113;-71
2022/03/19 05:01:26;;;;;;;55.45;26.90;;;;;;;3.73;84.76;100858.66;4986783;28;20030;-71
2022/03/19 05:03:52;;;;;;;58.95;26.90;;;;;;;3.56;84.72;100834.03;4988325;28;20120;-71
2022/03/19 05:06:17;;;;;;;53.85;26.50;;;;;;;3.81;83.89;100862.63;4987103;28;20583;-73
2022/03/19 05:08:42;;;;;;;65.85;28.40;;;;;;;3.74;84.54;100857.69;4980718;28;20042;-71
2022/03/19 05:11:14;;;;;;;57.38;27.15;;;;;;;3.51;85.03;100837.03;4984370;28;20486;-71
2022/03/19 05:13:44;;;;;;;60.38;28.08;;;;;;;3.49;85.10;100834.50;4986519;28;20029;-80
2022/03/19 05:16:10;;;;;;;56.10;26.70;;;;;;;3.76;84.12;100859.41;4997907;28;20077;-78
2022/03/19 05:18:36;;;;;;;56.88;27.73;;;;;;;3.55;83.61;100827.00;4990713;28;20480;-77
2022/03/19 05:21:01;;;;;;;55.70;28.13;;;;;;;3.61;84.18;100830.06;4979678;28;20026;-76
2022/03/19 05:23:27;;;;;;;56.10;27.67;;;;;;;3.45;84.31;100808.91;4988876;28;20030;-76
2022/03/19 05:25:52;;;;;;;54.78;25.13;;;;;;;3.69;83.95;100841.13;4990503;28;20384;-77
2022/03/19 05:28:18;;;;;;;53.92;26.80;;;;;;;3.76;83.48;100851.38;4990632;28;20033;-78
2022/03/19 05:30:44;;;;;;;52.13;26.00;;;;;;;3.72;84.12;100842.69;4991848;28;20486;-73
2022/03/19 05:33:11;;;;;;;59.40;26.60;;;;;;;3.54;83.29;100815.44;4993053;28;20053;-81
2022/03/19 05:35:37;;;;;;;52.75;26.23;;;;;;;3.69;82.76;100834.88;4996009;28;20022;-79
2022/03/19 05:38:05;;;;;;;51.78;25.88;;;;;;;3.86;82.37;100853.28;4991393;28;20511;-79
2022/03/19 05:40:30;;;;;;;51.22;25.27;;;;;;;3.99;81.86;100839.03;4999954;28;20030;-77
2022/03/19 05:42:56;;;;;;;48.15;24.48;;;;;;;4.00;80.88;100849.63;4984897;28;20477;-74
2022/03/19 05:45:21;;;;;;;62.47;26.98;;;;;;;3.85;81.34;100823.94;4988347;28;20023;-73
2022/03/19 05:47:47;;;;;;;57.17;26.48;;;;;;;4.08;81.17;100849.06;4982530;28;20030;-75
2022/03/19 05:50:14;;;;;;;55.28;26.05;;;;;;;3.96;81.34;100829.41;5007247;28;20109;-75
2022/03/19 05:52:40;;;;;;;53.05;26.05;;;;;;;3.84;80.33;100801.66;4991855;28;20061;-74
2022/03/19 05:55:06;;;;;;;55.03;24.98;;;;;;;4.13;81.27;100845.06;4999209;28;20105;-74
2022/03/19 05:57:32;;;;;;;53.95;25.92;;;;;;;4.23;80.32;100852.47;4984472;28;20025;-74
2022/03/19 05:59:57;;;;;;;53.30;26.40;;;;;;;4.62;79.22;100845.97;4984724;28;20030;-74
2022/03/19 06:02:22;;;;;;;55.75;27.30;;;;;;;5.22;76.22;100825.31;4988322;28;20451;-74
2022/03/19 06:04:47;;;;;;;53.28;25.38;;;;;;;5.61;73.55;100839.28;4986409;28;20062;-71
2022/03/19 06:07:13;;;;;;;53.47;25.05;;;;;;;6.11;71.72;100834.41;4987305;28;20112;-76
2022/03/19 06:09:38;;;;;;;52.35;24.15;;;;;;;6.47;69.97;100835.03;4988060;28;20028;-71
2022/03/19 06:12:04;;;;;;;54.00;25.75;;;;;;;6.65;67.73;100806.59;4985594;28;20053;-71
2022/03/19 06:14:29;;;;;;;50.67;23.92;;;;;;;7.20;66.65;100820.78;4982904;28;20427;-71
2022/03/19 06:16:54;;;;;;;54.88;24.98;;;;;;;7.10;66.14;100840.50;4989530;28;20185;-71
2022/03/19 06:19:20;;;;;;;49.92;24.83;;;;;;;7.45;64.82;100829.41;4988035;28;20035;-71
2022/03/19 06:21:46;;;;;;;48.20;24.95;;;;;;;7.51;63.96;100811.84;4988914;28;20081;-73
2022/03/19 06:24:11;;;;;;;49.80;24.65;;;;;;;8.11;62.69;100832.50;4990172;28;20033;-81
2022/03/19 06:26:37;;;;;;;59.78;25.58;;;;;;;8.26;60.83;100810.56;4993154;28;20015;-78
2022/03/19 06:29:02;;;;;;;49.13;24.95;;;;;;;8.69;59.70;100830.94;4989000;28;20030;-78
2022/03/19 06:31:29;;;;;;;50.45;23.48;;;;;;;9.30;58.07;100832.44;4994570;28;20125;-77
2022/03/19 06:33:54;;;;;;;45.80;23.95;;;;;;;8.77;58.92;100829.22;4990766;28;20022;-75
2022/03/19 06:39:05;;;;;;;48.70;23.75;;;;;;;9.94;55.44;100838.94;4995634;28;20138;-72
2022/03/19 06:41:31;;;;;;;47.20;23.70;;;;;;;10.56;53.56;100825.63;4990750;28;20113;-72
2022/03/19 06:43:56;;;;;;;46.75;22.90;;;;;;;10.32;53.30;100837.91;4981472;28;20098;-79
2022/03/19 06:46:22;;;;;;;47.08;24.15;;;;;;;10.20;53.22;100817.44;4998089;28;20060;-75
2022/03/19 06:48:49;;;;;;;45.85;23.13;;;;;;;11.04;50.97;100794.59;5000392;28;20443;-72
2022/03/19 06:51:15;;;;;;;42.25;23.58;;;;;;;11.51;50.15;100797.81;4996619;28;20030;-76
2022/03/19 06:53:40;;;;;;;40.20;23.25;;;;;;;12.18;48.43;100811.56;4990604;28;20400;-75
2022/03/19 06:56:06;;;;;;;41.97;23.20;;;;;;;11.85;48.28;100802.41;5000338;28;20030;-72
2022/03/19 06:58:32;;;;;;;38.72;22.55;;;;;;;12.41;47.16;100805.50;5005318;28;20031;-72
2022/03/19 07:00:58;;;;;;;45.90;22.42;;;;;;;12.22;47.44;100828.34;5022503;28;20029;-72
2022/03/19 07:03:23;;;;;;;40.80;23.23;;;;;;;12.47;46.15;100796.66;5010717;28;20494;-72
2022/03/19 07:05:49;;;;;;;38.92;22.55;;;;;;;12.82;45.54;100817.28;5009671;28;20037;-72
2022/03/19 07:08:14;;;;;;;40.58;22.85;;;;;;;13.29;44.56;100813.91;5009078;28;20520;-72
2022/03/19 07:10:40;;;;;;;41.75;22.40;;;;;;;14.21;43.00;100827.06;5005117;28;20063;-72
2022/03/19 07:13:06;;;;;;;42.10;22.48;;;;;;;13.79;43.22;100829.09;5007037;28;20041;-72
2022/03/19 07:15:31;;;;;;;41.28;22.33;;;;;;;13.93;43.34;100804.88;5005611;28;20026;-72
2022/03/19 07:18:00;;;;;;;38.67;22.17;;;;;;;15.19;41.01;100814.66;5005620;28;20034;-72
2022/03/19 07:20:25;;;;;;;37.37;22.87;;;;;;;15.91;38.96;100797.75;5001228;28;20037;-72
2022/03/19 07:22:58;;;;;;;37.15;21.10;;;;;;;15.51;38.88;100830.75;5004691;28;20058;-72
2022/03/19 07:25:26;;;;;;;38.08;21.98;;;;;;;14.87;39.05;100833.84;5004112;28;20085;-72
2022/03/19 07:27:54;;;;;;;39.15;20.98;;;;;;;15.20;38.48;100805.47;5010942;28;20388;-72
2022/03/19 07:30:20;;;;;;;38.87;22.70;;;;;;;16.34;37.14;100814.25;5005503;28;20054;-72
2022/03/19 07:32:45;;;;;;;35.33;21.92;;;;;;;16.78;35.82;100813.31;5002179;28;20281;-72
2022/03/19 07:35:13;;;;;;;36.90;21.02;;;;;;;16.31;35.87;100798.25;5000553;28;20050;-72
2022/03/19 07:37:41;;;;;;;39.35;21.55;;;;;;;16.22;37.24;100813.91;4999154;28;20015;-72
2022/03/19 07:40:07;;;;;;;41.53;21.17;;;;;;;16.61;34.53;100813.53;5001968;28;20106;-72
2022/03/19 07:42:34;;;;;;;34.88;21.63;;;;;;;16.61;35.52;100813.53;5004205;28;20030;-77
2022/03/19 07:45:00;;;;;;;40.55;21.23;;;;;;;17.05;35.18;100820.72;5002349;28;20026;-75
2022/03/19 07:47:26;;;;;;;33.72;21.58;;;;;;;17.92;33.17;100799.47;5004885;28;20054;-75
2022/03/19 07:49:51;;;;;;;36.50;20.33;;;;;;;16.08;35.46;100801.13;4991760;28;20030;-73
2022/03/19 07:52:16;;;;;;;32.53;19.52;;;;;;;17.24;33.71;100810.16;4988201;28;20026;-74
2022/03/19 07:54:42;;;;;;;34.03;20.48;;;;;;;16.75;35.42;100817.25;4991725;28;20022;-73
2022/03/19 07:57:11;;;;;;;36.75;21.20;;;;;;;16.19;35.13;100784.22;4994528;28;20027;-72
2022/03/19 07:59:37;;;;;;;32.97;20.55;;;;;;;17.58;34.04;100801.16;4995380;28;20026;-74
2022/03/19 08:02:04;;;;;;;34.45;20.33;;;;;;;17.15;34.14;100812.19;4995457;28;20026;-72
2022/03/19 08:04:30;;;;;;;36.10;21.08;;;;;;;16.84;35.16;100810.63;4992934;28;20023;-73
2022/03/19 08:06:55;;;;;;;33.38;21.73;;;;;;;15.51;36.19;100791.66;4994602;28;20027;-70
2022/03/19 08:09:23;;;;;;;34.13;20.40;;;;;;;17.37;34.61;100809.41;4987346;28;20034;-76
2022/03/19 08:11:49;;;;;;;34.72;22.30;;;;;;;15.92;35.45;100789.34;4991065;28;20031;-76
2022/03/19 08:14:16;;;;;;;47.22;22.73;;;;;;;17.01;34.02;100808.50;4994041;28;20038;-72
2022/03/19 08:16:42;;;;;;;35.22;21.17;;;;;;;17.65;33.10;100806.66;4993739;28;20065;-72
2022/03/19 08:19:10;;;;;;;33.72;20.55;;;;;;;18.37;32.40;100799.91;4991378;28;20293;-69
2022/03/19 08:21:38;;;;;;;33.95;20.83;;;;;;;18.91;32.58;100798.97;4984169;28;20054;-74
2022/03/19 08:24:05;;;;;;;35.05;21.40;;;;;;;18.62;32.26;100767.28;5018944;28;20013;-81
2022/03/19 08:26:30;;;;;;;39.17;21.75;;;;;;;18.43;32.27;100788.09;5009400;28;20201;-72
2022/03/19 08:28:55;;;;;;;38.38;22.65;;;;;;;17.56;33.36;100753.97;5019232;28;20053;-75
2022/03/19 08:31:21;;;;;;;34.88;20.67;;;;;;;16.81;34.06;100767.28;5008326;28;20026;-77
2022/03/19 08:33:46;;;;;;;37.80;22.20;;;;;;;17.63;33.37;100775.91;5008392;28;20068;-76
2022/03/19 08:36:11;;;;;;;38.63;22.08;;;;;;;16.81;34.88;100772.75;5016819;28;20014;-76
2022/03/19 08:41:21;;;;;;;32.83;21.00;;;;;;;18.53;32.77;100763.06;5005018;28;20021;-77
2022/03/19 08:43:46;;;;;;;39.95;22.73;;;;;;;18.51;32.13;100766.00;5012245;28;20031;-71
2022/03/19 08:46:12;;;;;;;39.10;24.35;;;;;;;17.13;34.61;100765.03;5003371;28;20093;-72
2022/03/19 08:48:37;;;;;;;36.95;23.23;;;;;;;17.04;35.24;100785.38;5007079;28;20014;-75
2022/03/19 08:53:48;;;;;;;38.33;22.95;;;;;;;17.20;35.49;100782.34;4983925;28;20487;-70
2022/03/19 08:56:13;;;;;;;38.60;23.67;;;;;;;15.92;36.93;100766.69;4990091;28;20026;-70
2022/03/19 08:58:38;;;;;;;42.70;23.63;;;;;;;17.02;35.63;100768.31;4987916;28;20101;-70
2022/03/19 09:01:04;;;;;;;39.60;23.98;;;;;;;17.31;35.61;100767.28;4990839;28;20042;-70
2022/03/19 09:03:30;;;;;;;37.42;22.58;;;;;;;17.48;35.09;100765.09;5004131;28;20495;-70
2022/03/19 09:05:55;;;;;;;42.25;24.08;;;;;;;17.78;35.16;100764.84;4987743;28;20027;-70
2022/03/19 09:08:22;;;;;;;38.70;24.48;;;;;;;18.20;34.16;100755.56;4983003;28;20033;-70
2022/03/19 09:10:47;;;;;;;37.55;24.52;;;;;;;17.69;34.61;100745.84;4985176;28;20535;-70
2022/03/19 09:13:12;;;;;;;41.33;24.27;;;;;;;18.11;34.56;100741.22;4985080;28;20060;-70
2022/03/19 09:15:38;;;;;;;39.50;23.60;;;;;;;17.71;34.43;100741.00;4983328;28;20058;-70
2022/03/19 09:18:05;;;;;;;37.38;24.42;;;;;;;17.85;34.18;100744.69;4987988;28;20058;-69
2022/03/19 09:20:31;;;;;;;40.15;24.20;;;;;;;18.58;33.24;100739.44;4980967;28;20022;-70
2022/03/19 09:22:56;;;;;;;34.92;23.52;;;;;;;18.66;32.91;100726.59;4984926;28;20026;-70
2022/03/19 09:25:22;;;;;;;38.40;23.83;;;;;;;18.39;33.87;100721.03;4986058;28;20385;-70
2022/03/19 09:27:47;;;;;;;39.58;24.33;;;;;;;19.41;31.71;100717.09;4987772;28;20514;-70
2022/03/19 09:30:12;;;;;;;35.45;22.85;;;;;;;19.58;31.65;100728.44;4983839;28;20059;-70
2022/03/19 09:32:38;;;;;;;37.63;24.80;;;;;;;18.43;33.44;100716.84;4998791;28;20027;-70
2022/03/19 09:35:04;;;;;;;37.13;24.02;;;;;;;18.04;33.46;100702.00;4985682;28;20514;-70
2022/03/19 09:37:29;;;;;;;38.40;24.08;;;;;;;18.12;33.32;100710.03;4986884;28;20116;-70
2022/03/19 09:39:55;;;;;;;35.58;21.83;;;;;;;19.63;31.93;100694.84;4985843;28;20103;-70
2022/03/19 09:42:20;;;;;;;38.30;23.52;;;;;;;19.07;31.59;100701.72;4983261;28;20030;-70
2022/03/19 09:44:45;;;;;;;35.90;22.80;;;;;;;18.38;31.78;100697.44;4981416;28;20100;-70
2022/03/19 09:47:12;;;;;;;36.17;22.65;;;;;;;18.03;32.97;100699.47;4985023;28;20019;-70
2022/03/19 09:49:38;;;;;;;34.45;22.08;;;;;;;17.90;32.25;100683.84;4980639;28;20097;-70
2022/03/19 09:52:04;;;;;;;34.35;22.58;;;;;;;17.81;31.56;100666.72;4974293;28;20034;-70
2022/03/19 09:54:30;;;;;;;34.80;22.25;;;;;;;18.31;31.09;100647.25;4985820;28;20026;-70
2022/03/19 09:56:57;;;;;;;32.80;22.05;;;;;;;18.32;31.21;100659.91;4986145;28;20045;-70
2022/03/19 09:59:22;;;;;;;35.80;22.15;;;;;;;19.36;29.87;100669.34;4982942;28;20101;-70
2022/03/19 10:01:49;;;;;;;33.17;21.48;;;;;;;19.47;30.14;100650.34;4985671;28;20121;-69
2022/03/19 10:04:19;;;;;;;33.70;21.05;;;;;;;19.89;28.97;100655.47;4982692;28;20042;-70
2022/03/19 10:09:47;;;;;;;34.45;21.17;;;;;;;17.96;30.77;100656.47;4987767;28;20112;-69
2022/03/19 10:12:21;;;;;;;33.85;22.02;;;;;;;17.91;32.17;100650.75;4993323;28;20099;-69
2022/03/19 10:14:54;;;;;;;32.28;19.25;;;;;;;19.04;29.76;100648.09;4993641;28;20026;-69
2022/03/19 10:17:33;;;;;;;36.95;21.02;;;;;;;19.29;30.36;100650.19;4991353;28;20733;-70
2022/03/19 10:20:09;;;;;;;27.25;18.10;;;;;;;19.93;28.63;100643.81;4990719;28;20041;-69
2022/03/19 10:22:38;;;;;;;26.75;16.73;;;;;;;19.84;28.48;100609.44;4990878;28;20026;-69
2022/03/19 10:25:05;;;;;;;;;;;;;;;18.55;29.94;100613.75;4994050;28;20472;-69
2022/03/19 10:27:33;;;;;;;27.63;16.05;;;;;;;18.35;30.48;100632.09;4992192;28;20644;-69
2022/03/19 10:30:07;;;;;;;22.83;14.52;;;;;;;19.91;27.68;100629.47;4987931;28;20068;-69
2022/03/19 10:32:33;;;;;;;23.83;15.13;;;;;;;20.26;27.29;100612.53;5000258;28;20026;-69
2022/03/19 10:34:59;;;;;;;18.95;12.68;;;;;;;20.24;26.45;100614.66;4987626;28;20030;-69
2022/03/19 10:37:38;;;;;;;23.60;14.82;;;;;;;19.18;28.20;100612.44;4982512;28;20027;-69
2022/03/19 10:40:06;;;;;;;20.52;13.32;;;;;;;19.55;27.87;100610.81;4983555;28;20034;-69
2022/03/19 10:42:40;;;;;;;20.70;12.15;;;;;;;19.39;27.74;100594.84;4989077;28;20037;-69
2022/03/19 10:45:11;;;;;;;19.67;12.45;;;;;;;18.89;28.15;100570.72;4985763;28;20093;-69
2022/03/19 10:47:42;;;;;;;18.40;11.60;;;;;;;18.73;28.40;100588.44;4988896;28;20680;-69
2022/03/19 10:50:08;;;;;;;19.25;11.75;;;;;;;17.39;29.78;100582.97;4982929;28;20031;-69
2022/03/19 10:52:35;;;;;;;17.38;10.70;;;;;;;17.30;30.37;100574.94;4984803;28;20038;-68
2022/03/19 10:55:04;;;;;;;17.85;10.52;;;;;;;17.90;29.31;100586.09;4991598;28;20037;-69
2022/03/19 10:57:30;;;;;;;16.00;9.95;;;;;;;19.10;29.10;100558.63;4987138;28;20026;-69
2022/03/19 10:59:55;;;;;;;17.48;10.68;;;;;;;19.69;27.41;100559.44;4988640;28;20077;-69
2022/03/19 11:02:21;;;;;;;18.73;10.85;;;;;;;19.02;27.88;100567.09;4984617;28;20081;-69
2022/03/19 11:04:49;;;;;;;17.10;10.35;;;;;;;19.09;28.00;100536.91;4985882;28;20491;-68
2022/03/19 11:07:20;;;;;;;18.40;10.00;;;;;;;19.49;27.49;100545.78;4982193;28;20118;-69
2022/03/19 11:09:45;;;;;;;15.18;9.93;;;;;;;19.31;28.92;100543.78;4988307;28;20416;-68
2022/03/19 11:12:14;;;;;;;16.40;10.27;;;;;;;19.07;29.23;100541.75;4988222;28;20032;-68
2022/03/19 11:14:41;;;;;;;16.42;9.80;;;;;;;20.03;28.39;100540.84;4980168;28;20412;-69
2022/03/19 11:17:24;;;;;;;18.23;10.63;;;;;;;17.34;30.90;100534.31;4989446;28;20049;-69
2022/03/19 11:19:52;;;;;;;18.60;10.10;;;;;;;17.24;32.17;100545.66;4990085;28;20029;-69
2022/03/19 11:22:18;;;;;;;17.55;9.95;;;;;;;17.60;31.34;100540.94;4983855;28;20113;-69
2022/03/19 11:25:02;;;;;;;16.88;10.20;;;;;;;17.81;31.71;100531.72;4983061;28;20462;-70